Huvudsida
METAR-TAF:

METAR-TAF

Flygplatser :

Svalbards flygplats. Longyear

Longyearbyen, Norge

latitud: 78-15N, longitud: 015-28E, höjd: 2 m

Aktuellt väderrapport

Denna rapport gjordes för 54 minuter sedan, klockan 14:50 UTC
Vind 6 kt från ost
Temperatur 0°C
Fuktighet 74%
Tryck 1008 hPa
Sikt 10 km eller mer
Få moln på en höjd av 1500 ft
Brutna moln på en höjd av 3700 ft

METAR: ENSB 221450Z 10006KT 9999 FEW015 BKN037 00/M04 Q1008 RMK WIND 1400FT 09003KT

Tid: 17:44 (15:44 UTC)

Väderprognos

Prognos gäller från 22 kl. 12 UTC till 23 kl. 12 UTC
Vind 5 kt varierande vindriktning
Sikt 10 km eller mer
Få moln på en höjd av 2000 ft
Brutna moln på en höjd av 3000 ft
Temporärt
från 22 kl. 12 UTC till 22 kl. 21 UTC
Vind 10 kt från ost/sydost
Blir
från 23 kl. 03 UTC till 23 kl. 05 UTC
Vind 10 kt från väst/sydväst

TAF: ENSB 2212/2312 VRB05KT 9999 FEW020 BKN030 TEMPO 2212/2221 12010KT BECMG 2303/2305 25010KT

Aktuella väderrapporter och prognoser från 4000 flygplatser (METAR- och TAF-rapporter).

De tillgängliga stationerna syns som gula och röda prickar på kartan.

För musen över prickarna för att se namnen på stationerna.

Klicka sedan för att få väderrapporter och prognoser.

För att ändra kartan: Klicka på de gröna knapparna med ett svart kors på för att zooma in; den gröna knappen med ett streck på för att zooma ut; eller på de gröna pilarna för angränsande kartor.


METAR-TAF: